sensor_id;sensor_type;location;lat;lon;timestamp;temperature;humidity
16823;DHT22;8528;49.976;11.858;2023-03-23T00:01:05;10.90;99.90
16823;DHT22;8528;49.976;11.858;2023-03-23T00:03:31;10.80;99.90
16823;DHT22;8528;49.976;11.858;2023-03-23T00:05:58;10.80;99.90
16823;DHT22;8528;49.976;11.858;2023-03-23T00:08:31;10.80;99.90
16823;DHT22;8528;49.976;11.858;2023-03-23T00:10:57;10.90;99.90
16823;DHT22;8528;49.976;11.858;2023-03-23T00:13:27;10.90;99.90
16823;DHT22;8528;49.976;11.858;2023-03-23T00:15:53;11.00;99.90
16823;DHT22;8528;49.976;11.858;2023-03-23T00:18:19;11.10;99.90
16823;DHT22;8528;49.976;11.858;2023-03-23T00:20:53;11.00;99.90
16823;DHT22;8528;49.976;11.858;2023-03-23T00:23:22;11.10;99.90
16823;DHT22;8528;49.976;11.858;2023-03-23T00:25:50;11.00;99.90
16823;DHT22;8528;49.976;11.858;2023-03-23T00:28:19;11.00;99.90
16823;DHT22;8528;49.976;11.858;2023-03-23T00:30:55;11.00;99.90
16823;DHT22;8528;49.976;11.858;2023-03-23T00:33:23;10.90;99.90
16823;DHT22;8528;49.976;11.858;2023-03-23T00:35:50;10.80;99.90
16823;DHT22;8528;49.976;11.858;2023-03-23T00:38:18;10.70;99.90
16823;DHT22;8528;49.976;11.858;2023-03-23T00:40:45;10.60;99.90
16823;DHT22;8528;49.976;11.858;2023-03-23T00:43:13;10.50;99.90
16823;DHT22;8528;49.976;11.858;2023-03-23T00:45:39;10.60;99.90
16823;DHT22;8528;49.976;11.858;2023-03-23T00:48:05;10.60;99.90
16823;DHT22;8528;49.976;11.858;2023-03-23T00:50:31;10.70;99.90
16823;DHT22;8528;49.976;11.858;2023-03-23T00:52:58;10.70;99.90
16823;DHT22;8528;49.976;11.858;2023-03-23T00:55:25;10.70;99.90
16823;DHT22;8528;49.976;11.858;2023-03-23T00:57:51;10.70;99.90
16823;DHT22;8528;49.976;11.858;2023-03-23T01:00:18;10.80;99.90
16823;DHT22;8528;49.976;11.858;2023-03-23T01:02:45;10.90;99.90
16823;DHT22;8528;49.976;11.858;2023-03-23T01:05:11;11.00;99.90
16823;DHT22;8528;49.976;11.858;2023-03-23T01:07:37;11.10;99.90
16823;DHT22;8528;49.976;11.858;2023-03-23T01:10:04;11.00;99.90
16823;DHT22;8528;49.976;11.858;2023-03-23T01:12:29;11.00;99.90
16823;DHT22;8528;49.976;11.858;2023-03-23T01:14:55;11.00;99.90
16823;DHT22;8528;49.976;11.858;2023-03-23T01:17:21;11.00;99.90
16823;DHT22;8528;49.976;11.858;2023-03-23T01:19:47;11.00;99.90
16823;DHT22;8528;49.976;11.858;2023-03-23T01:22:13;10.90;99.90
16823;DHT22;8528;49.976;11.858;2023-03-23T01:24:39;10.80;99.90
16823;DHT22;8528;49.976;11.858;2023-03-23T01:27:04;10.90;99.90
16823;DHT22;8528;49.976;11.858;2023-03-23T01:29:35;10.90;99.90
16823;DHT22;8528;49.976;11.858;2023-03-23T01:32:02;10.80;99.90
16823;DHT22;8528;49.976;11.858;2023-03-23T01:34:27;10.80;99.90
16823;DHT22;8528;49.976;11.858;2023-03-23T01:36:53;10.80;99.90
16823;DHT22;8528;49.976;11.858;2023-03-23T01:39:19;10.80;99.90
16823;DHT22;8528;49.976;11.858;2023-03-23T01:41:45;10.90;99.90
16823;DHT22;8528;49.976;11.858;2023-03-23T01:46:44;11.00;99.90
16823;DHT22;8528;49.976;11.858;2023-03-23T01:49:23;11.10;99.90
16823;DHT22;8528;49.976;11.858;2023-03-23T01:51:57;11.10;99.90
16823;DHT22;8528;49.976;11.858;2023-03-23T01:54:24;11.10;99.90
16823;DHT22;8528;49.976;11.858;2023-03-23T01:56:59;11.10;99.90
16823;DHT22;8528;49.976;11.858;2023-03-23T01:59:25;11.10;99.90
16823;DHT22;8528;49.976;11.858;2023-03-23T02:01:54;11.20;99.90
16823;DHT22;8528;49.976;11.858;2023-03-23T02:04:22;11.20;99.90
16823;DHT22;8528;49.976;11.858;2023-03-23T02:06:49;11.30;99.90
16823;DHT22;8528;49.976;11.858;2023-03-23T02:09:16;11.40;99.90
16823;DHT22;8528;49.976;11.858;2023-03-23T02:11:45;11.40;99.90
16823;DHT22;8528;49.976;11.858;2023-03-23T02:14:12;11.40;99.90
16823;DHT22;8528;49.976;11.858;2023-03-23T02:25:11;11.30;99.90
16823;DHT22;8528;49.976;11.858;2023-03-23T02:41:19;11.50;99.90
16823;DHT22;8528;49.976;11.858;2023-03-23T02:43:47;11.50;99.90
16823;DHT22;8528;49.976;11.858;2023-03-23T02:46:14;11.40;99.90
16823;DHT22;8528;49.976;11.858;2023-03-23T02:48:42;11.50;99.90
16823;DHT22;8528;49.976;11.858;2023-03-23T02:51:11;11.50;99.90
16823;DHT22;8528;49.976;11.858;2023-03-23T02:53:40;11.50;99.90
16823;DHT22;8528;49.976;11.858;2023-03-23T02:56:08;11.50;99.90
16823;DHT22;8528;49.976;11.858;2023-03-23T02:58:35;11.50;99.90
16823;DHT22;8528;49.976;11.858;2023-03-23T03:04:03;11.40;99.90
16823;DHT22;8528;49.976;11.858;2023-03-23T03:09:23;11.50;99.90
16823;DHT22;8528;49.976;11.858;2023-03-23T03:11:57;11.50;99.90
16823;DHT22;8528;49.976;11.858;2023-03-23T03:15:05;11.50;99.90
16823;DHT22;8528;49.976;11.858;2023-03-23T03:17:35;11.50;99.90
16823;DHT22;8528;49.976;11.858;2023-03-23T03:20:03;11.50;99.90
16823;DHT22;8528;49.976;11.858;2023-03-23T03:22:35;11.40;99.90
16823;DHT22;8528;49.976;11.858;2023-03-23T03:25:03;11.40;99.90
16823;DHT22;8528;49.976;11.858;2023-03-23T03:27:31;11.40;99.90
16823;DHT22;8528;49.976;11.858;2023-03-23T03:29:59;11.40;99.90
16823;DHT22;8528;49.976;11.858;2023-03-23T03:32:43;11.40;99.90
16823;DHT22;8528;49.976;11.858;2023-03-23T03:35:12;11.40;99.90
16823;DHT22;8528;49.976;11.858;2023-03-23T03:37:38;11.40;99.90
16823;DHT22;8528;49.976;11.858;2023-03-23T03:40:06;11.40;99.90
16823;DHT22;8528;49.976;11.858;2023-03-23T03:42:40;11.30;99.90
16823;DHT22;8528;49.976;11.858;2023-03-23T03:45:08;11.40;99.90
16823;DHT22;8528;49.976;11.858;2023-03-23T03:47:34;11.40;99.90
16823;DHT22;8528;49.976;11.858;2023-03-23T03:50:00;11.40;99.90
16823;DHT22;8528;49.976;11.858;2023-03-23T03:52:26;11.40;99.90
16823;DHT22;8528;49.976;11.858;2023-03-23T03:54:53;11.40;99.90
16823;DHT22;8528;49.976;11.858;2023-03-23T03:57:20;11.30;99.90
16823;DHT22;8528;49.976;11.858;2023-03-23T03:59:46;11.30;99.90
16823;DHT22;8528;49.976;11.858;2023-03-23T04:02:12;11.30;99.90
16823;DHT22;8528;49.976;11.858;2023-03-23T04:04:42;11.20;99.90
16823;DHT22;8528;49.976;11.858;2023-03-23T04:07:09;11.20;99.90
16823;DHT22;8528;49.976;11.858;2023-03-23T04:09:40;11.10;99.90
16823;DHT22;8528;49.976;11.858;2023-03-23T04:12:05;11.20;99.90
16823;DHT22;8528;49.976;11.858;2023-03-23T04:14:32;11.10;99.90
16823;DHT22;8528;49.976;11.858;2023-03-23T04:16:58;11.10;99.90
16823;DHT22;8528;49.976;11.858;2023-03-23T04:19:24;11.10;99.90
16823;DHT22;8528;49.976;11.858;2023-03-23T04:21:50;11.20;99.90
16823;DHT22;8528;49.976;11.858;2023-03-23T04:24:16;11.10;99.90
16823;DHT22;8528;49.976;11.858;2023-03-23T04:26:42;11.10;99.90
16823;DHT22;8528;49.976;11.858;2023-03-23T04:29:08;11.10;99.90
16823;DHT22;8528;49.976;11.858;2023-03-23T04:31:34;11.10;99.90
16823;DHT22;8528;49.976;11.858;2023-03-23T04:34:01;11.10;99.90
16823;DHT22;8528;49.976;11.858;2023-03-23T04:36:27;11.10;99.90
16823;DHT22;8528;49.976;11.858;2023-03-23T04:38:55;11.10;99.90
16823;DHT22;8528;49.976;11.858;2023-03-23T04:41:22;11.10;99.90
16823;DHT22;8528;49.976;11.858;2023-03-23T04:43:49;11.10;99.90
16823;DHT22;8528;49.976;11.858;2023-03-23T04:46:19;11.10;99.90
16823;DHT22;8528;49.976;11.858;2023-03-23T04:48:46;11.20;99.90
16823;DHT22;8528;49.976;11.858;2023-03-23T04:51:12;11.20;99.90
16823;DHT22;8528;49.976;11.858;2023-03-23T04:53:39;11.30;99.90
16823;DHT22;8528;49.976;11.858;2023-03-23T04:56:04;11.20;99.90
16823;DHT22;8528;49.976;11.858;2023-03-23T04:58:30;11.30;99.90
16823;DHT22;8528;49.976;11.858;2023-03-23T05:01:00;11.20;99.90
16823;DHT22;8528;49.976;11.858;2023-03-23T05:03:26;11.20;99.90
16823;DHT22;8528;49.976;11.858;2023-03-23T05:05:53;11.10;99.90
16823;DHT22;8528;49.976;11.858;2023-03-23T05:08:23;11.20;99.90
16823;DHT22;8528;49.976;11.858;2023-03-23T05:10:57;11.10;99.90
16823;DHT22;8528;49.976;11.858;2023-03-23T05:13:23;11.10;99.90
16823;DHT22;8528;49.976;11.858;2023-03-23T05:15:49;11.10;99.90
16823;DHT22;8528;49.976;11.858;2023-03-23T05:18:16;11.10;99.90
16823;DHT22;8528;49.976;11.858;2023-03-23T05:20:42;11.00;99.90
16823;DHT22;8528;49.976;11.858;2023-03-23T05:23:09;11.00;99.90
16823;DHT22;8528;49.976;11.858;2023-03-23T05:25:36;11.00;99.90
16823;DHT22;8528;49.976;11.858;2023-03-23T05:28:06;11.00;99.90
16823;DHT22;8528;49.976;11.858;2023-03-23T05:30:32;11.00;99.90
16823;DHT22;8528;49.976;11.858;2023-03-23T05:32:58;10.90;99.90
16823;DHT22;8528;49.976;11.858;2023-03-23T05:35:25;10.90;99.90
16823;DHT22;8528;49.976;11.858;2023-03-23T05:37:51;10.80;99.90
16823;DHT22;8528;49.976;11.858;2023-03-23T05:40:19;10.80;99.90
16823;DHT22;8528;49.976;11.858;2023-03-23T05:42:46;10.70;99.90
16823;DHT22;8528;49.976;11.858;2023-03-23T05:45:13;10.80;99.90
16823;DHT22;8528;49.976;11.858;2023-03-23T05:47:40;10.80;99.90
16823;DHT22;8528;49.976;11.858;2023-03-23T05:50:08;10.90;99.90
16823;DHT22;8528;49.976;11.858;2023-03-23T05:52:35;10.90;99.90
16823;DHT22;8528;49.976;11.858;2023-03-23T05:55:04;11.00;99.90
16823;DHT22;8528;49.976;11.858;2023-03-23T05:57:31;11.10;99.90
16823;DHT22;8528;49.976;11.858;2023-03-23T05:59:57;11.50;99.90
16823;DHT22;8528;49.976;11.858;2023-03-23T06:02:24;11.70;99.90
16823;DHT22;8528;49.976;11.858;2023-03-23T06:04:53;11.90;99.90
16823;DHT22;8528;49.976;11.858;2023-03-23T06:07:24;12.00;99.90
16823;DHT22;8528;49.976;11.858;2023-03-23T06:09:50;11.90;99.90
16823;DHT22;8528;49.976;11.858;2023-03-23T06:12:16;11.80;99.90
16823;DHT22;8528;49.976;11.858;2023-03-23T06:14:47;11.80;99.90
16823;DHT22;8528;49.976;11.858;2023-03-23T06:17:14;11.80;99.90
16823;DHT22;8528;49.976;11.858;2023-03-23T06:19:40;11.80;99.90
16823;DHT22;8528;49.976;11.858;2023-03-23T06:22:06;11.80;99.90
16823;DHT22;8528;49.976;11.858;2023-03-23T06:24:32;11.80;99.90
16823;DHT22;8528;49.976;11.858;2023-03-23T06:26:58;11.80;99.90
16823;DHT22;8528;49.976;11.858;2023-03-23T06:29:24;11.80;99.90
16823;DHT22;8528;49.976;11.858;2023-03-23T06:31:54;11.80;99.90
16823;DHT22;8528;49.976;11.858;2023-03-23T06:34:21;11.90;99.90
16823;DHT22;8528;49.976;11.858;2023-03-23T06:36:47;12.00;99.90
16823;DHT22;8528;49.976;11.858;2023-03-23T06:39:13;12.00;99.90
16823;DHT22;8528;49.976;11.858;2023-03-23T06:41:39;12.10;99.90
16823;DHT22;8528;49.976;11.858;2023-03-23T06:44:05;12.20;99.90
16823;DHT22;8528;49.976;11.858;2023-03-23T06:46:32;12.40;99.90
16823;DHT22;8528;49.976;11.858;2023-03-23T06:48:57;12.60;99.90
16823;DHT22;8528;49.976;11.858;2023-03-23T06:51:24;12.80;99.90
16823;DHT22;8528;49.976;11.858;2023-03-23T06:53:51;13.00;99.90
16823;DHT22;8528;49.976;11.858;2023-03-23T06:56:16;13.20;99.90
16823;DHT22;8528;49.976;11.858;2023-03-23T06:58:42;13.30;99.90
16823;DHT22;8528;49.976;11.858;2023-03-23T07:01:09;13.20;99.90
16823;DHT22;8528;49.976;11.858;2023-03-23T07:03:35;13.10;99.90
16823;DHT22;8528;49.976;11.858;2023-03-23T07:06:02;13.00;99.90
16823;DHT22;8528;49.976;11.858;2023-03-23T07:08:29;12.80;99.90
16823;DHT22;8528;49.976;11.858;2023-03-23T07:10:56;12.70;99.90
16823;DHT22;8528;49.976;11.858;2023-03-23T07:13:23;12.70;99.90
16823;DHT22;8528;49.976;11.858;2023-03-23T07:15:48;12.70;99.90
16823;DHT22;8528;49.976;11.858;2023-03-23T07:18:16;12.70;99.90
16823;DHT22;8528;49.976;11.858;2023-03-23T07:20:42;12.60;99.90
16823;DHT22;8528;49.976;11.858;2023-03-23T07:23:08;12.70;99.90
16823;DHT22;8528;49.976;11.858;2023-03-23T07:25:34;12.80;99.90
16823;DHT22;8528;49.976;11.858;2023-03-23T07:28:01;12.60;99.90
16823;DHT22;8528;49.976;11.858;2023-03-23T07:30:28;12.60;99.90
16823;DHT22;8528;49.976;11.858;2023-03-23T07:32:57;12.50;99.90
16823;DHT22;8528;49.976;11.858;2023-03-23T07:35:24;12.50;99.90
16823;DHT22;8528;49.976;11.858;2023-03-23T07:37:51;12.60;99.90
16823;DHT22;8528;49.976;11.858;2023-03-23T07:40:18;12.70;99.90
16823;DHT22;8528;49.976;11.858;2023-03-23T07:42:45;12.80;99.90
16823;DHT22;8528;49.976;11.858;2023-03-23T07:45:12;12.90;99.90
16823;DHT22;8528;49.976;11.858;2023-03-23T07:47:39;13.00;99.90
16823;DHT22;8528;49.976;11.858;2023-03-23T07:50:06;13.10;99.90
16823;DHT22;8528;49.976;11.858;2023-03-23T07:52:33;13.50;99.90
16823;DHT22;8528;49.976;11.858;2023-03-23T07:54:59;13.70;99.90
16823;DHT22;8528;49.976;11.858;2023-03-23T07:57:28;13.90;99.90
16823;DHT22;8528;49.976;11.858;2023-03-23T07:59:54;14.00;99.90
16823;DHT22;8528;49.976;11.858;2023-03-23T08:02:21;14.20;99.90
16823;DHT22;8528;49.976;11.858;2023-03-23T08:04:46;14.30;99.90
16823;DHT22;8528;49.976;11.858;2023-03-23T08:07:14;14.00;99.90
16823;DHT22;8528;49.976;11.858;2023-03-23T08:09:42;13.70;99.90
16823;DHT22;8528;49.976;11.858;2023-03-23T08:12:08;13.30;99.90
16823;DHT22;8528;49.976;11.858;2023-03-23T08:14:34;12.90;99.90
16823;DHT22;8528;49.976;11.858;2023-03-23T08:17:00;12.70;99.90
16823;DHT22;8528;49.976;11.858;2023-03-23T08:19:44;13.00;99.90
16823;DHT22;8528;49.976;11.858;2023-03-23T08:22:11;13.20;99.90
16823;DHT22;8528;49.976;11.858;2023-03-23T08:24:37;13.30;99.90
16823;DHT22;8528;49.976;11.858;2023-03-23T08:27:03;13.30;99.90
16823;DHT22;8528;49.976;11.858;2023-03-23T08:29:29;13.50;99.90
16823;DHT22;8528;49.976;11.858;2023-03-23T08:31:57;13.90;99.90
16823;DHT22;8528;49.976;11.858;2023-03-23T08:34:23;14.10;99.90
16823;DHT22;8528;49.976;11.858;2023-03-23T08:36:49;13.80;99.90
16823;DHT22;8528;49.976;11.858;2023-03-23T08:39:17;13.70;99.90
16823;DHT22;8528;49.976;11.858;2023-03-23T08:41:44;13.50;99.90
16823;DHT22;8528;49.976;11.858;2023-03-23T08:44:10;13.20;99.90
16823;DHT22;8528;49.976;11.858;2023-03-23T08:46:38;13.00;99.90
16823;DHT22;8528;49.976;11.858;2023-03-23T08:49:04;12.80;99.90
16823;DHT22;8528;49.976;11.858;2023-03-23T08:51:32;12.70;99.90
16823;DHT22;8528;49.976;11.858;2023-03-23T08:53:57;12.60;99.90
16823;DHT22;8528;49.976;11.858;2023-03-23T08:56:32;12.60;99.90
16823;DHT22;8528;49.976;11.858;2023-03-23T08:58:57;12.70;99.90
16823;DHT22;8528;49.976;11.858;2023-03-23T09:01:23;12.60;99.90
16823;DHT22;8528;49.976;11.858;2023-03-23T09:03:50;12.50;99.90
16823;DHT22;8528;49.976;11.858;2023-03-23T09:06:16;12.50;99.90
16823;DHT22;8528;49.976;11.858;2023-03-23T09:08:43;12.50;99.90
16823;DHT22;8528;49.976;11.858;2023-03-23T09:11:11;12.60;99.90
16823;DHT22;8528;49.976;11.858;2023-03-23T09:13:37;12.50;99.90
16823;DHT22;8528;49.976;11.858;2023-03-23T09:16:04;12.40;99.90
16823;DHT22;8528;49.976;11.858;2023-03-23T09:18:43;12.30;99.90
16823;DHT22;8528;49.976;11.858;2023-03-23T09:21:09;12.30;99.90
16823;DHT22;8528;49.976;11.858;2023-03-23T09:23:35;12.30;99.90
16823;DHT22;8528;49.976;11.858;2023-03-23T09:26:02;12.40;99.90
16823;DHT22;8528;49.976;11.858;2023-03-23T09:28:28;12.40;99.90
16823;DHT22;8528;49.976;11.858;2023-03-23T09:30:55;12.40;99.90
16823;DHT22;8528;49.976;11.858;2023-03-23T09:33:23;12.20;99.90
16823;DHT22;8528;49.976;11.858;2023-03-23T09:35:48;12.10;99.90
16823;DHT22;8528;49.976;11.858;2023-03-23T09:38:14;12.00;99.90
16823;DHT22;8528;49.976;11.858;2023-03-23T09:40:56;12.00;99.90
16823;DHT22;8528;49.976;11.858;2023-03-23T09:43:37;12.00;99.90
16823;DHT22;8528;49.976;11.858;2023-03-23T09:49:01;12.10;99.90
16823;DHT22;8528;49.976;11.858;2023-03-23T09:51:48;12.10;99.90
16823;DHT22;8528;49.976;11.858;2023-03-23T09:56:53;12.50;99.90
16823;DHT22;8528;49.976;11.858;2023-03-23T09:59:41;12.50;99.90
16823;DHT22;8528;49.976;11.858;2023-03-23T10:02:16;12.60;99.90
16823;DHT22;8528;49.976;11.858;2023-03-23T10:04:48;12.40;99.90
16823;DHT22;8528;49.976;11.858;2023-03-23T10:07:22;12.30;99.90
16823;DHT22;8528;49.976;11.858;2023-03-23T10:09:55;12.40;99.90
16823;DHT22;8528;49.976;11.858;2023-03-23T10:12:41;12.40;99.90
16823;DHT22;8528;49.976;11.858;2023-03-23T10:15:25;12.50;99.90
16823;DHT22;8528;49.976;11.858;2023-03-23T10:18:02;12.60;99.90
16823;DHT22;8528;49.976;11.858;2023-03-23T10:23:08;13.10;99.90
16823;DHT22;8528;49.976;11.858;2023-03-23T10:25:39;13.70;99.90
16823;DHT22;8528;49.976;11.858;2023-03-23T10:28:17;14.60;99.90
16823;DHT22;8528;49.976;11.858;2023-03-23T10:30:57;15.60;99.90
16823;DHT22;8528;49.976;11.858;2023-03-23T10:36:06;17.00;99.90
16823;DHT22;8528;49.976;11.858;2023-03-23T10:38:39;16.80;99.90
16823;DHT22;8528;49.976;11.858;2023-03-23T10:41:15;16.60;99.90
16823;DHT22;8528;49.976;11.858;2023-03-23T10:43:42;16.20;99.90
16823;DHT22;8528;49.976;11.858;2023-03-23T10:48:54;15.50;99.90
16823;DHT22;8528;49.976;11.858;2023-03-23T10:51:31;15.10;99.90
16823;DHT22;8528;49.976;11.858;2023-03-23T10:53:59;14.90;99.90
16823;DHT22;8528;49.976;11.858;2023-03-23T10:56:29;14.80;99.90
16823;DHT22;8528;49.976;11.858;2023-03-23T10:58:59;14.40;99.90
16823;DHT22;8528;49.976;11.858;2023-03-23T11:01:33;14.30;99.90
16823;DHT22;8528;49.976;11.858;2023-03-23T11:04:00;14.10;99.90
16823;DHT22;8528;49.976;11.858;2023-03-23T11:06:32;13.80;99.90
16823;DHT22;8528;49.976;11.858;2023-03-23T11:09:14;13.70;99.90
16823;DHT22;8528;49.976;11.858;2023-03-23T11:11:48;13.50;99.90
16823;DHT22;8528;49.976;11.858;2023-03-23T11:14:18;13.20;99.90
16823;DHT22;8528;49.976;11.858;2023-03-23T11:16:53;13.10;99.90
16823;DHT22;8528;49.976;11.858;2023-03-23T11:19:28;13.00;99.90
16823;DHT22;8528;49.976;11.858;2023-03-23T11:22:05;13.00;99.90
16823;DHT22;8528;49.976;11.858;2023-03-23T11:24:42;13.00;99.90
16823;DHT22;8528;49.976;11.858;2023-03-23T11:27:09;12.90;99.90
16823;DHT22;8528;49.976;11.858;2023-03-23T11:29:47;12.80;99.90
16823;DHT22;8528;49.976;11.858;2023-03-23T11:32:15;12.60;99.90
16823;DHT22;8528;49.976;11.858;2023-03-23T11:34:52;12.60;99.90
16823;DHT22;8528;49.976;11.858;2023-03-23T11:37:40;12.50;99.90
16823;DHT22;8528;49.976;11.858;2023-03-23T11:43:01;12.30;99.90
16823;DHT22;8528;49.976;11.858;2023-03-23T11:45:54;12.10;99.90
16823;DHT22;8528;49.976;11.858;2023-03-23T11:48:45;12.00;99.90
16823;DHT22;8528;49.976;11.858;2023-03-23T11:51:17;12.10;99.90
16823;DHT22;8528;49.976;11.858;2023-03-23T11:56:50;12.30;99.90
16823;DHT22;8528;49.976;11.858;2023-03-23T11:59:28;12.40;99.90
16823;DHT22;8528;49.976;11.858;2023-03-23T12:07:54;12.40;99.90
16823;DHT22;8528;49.976;11.858;2023-03-23T12:10:36;12.60;99.90
16823;DHT22;8528;49.976;11.858;2023-03-23T12:16:15;13.10;99.90
16823;DHT22;8528;49.976;11.858;2023-03-23T12:21:45;13.70;99.90
16823;DHT22;8528;49.976;11.858;2023-03-23T12:26:55;14.10;99.90
16823;DHT22;8528;49.976;11.858;2023-03-23T12:32:32;14.00;99.90
16823;DHT22;8528;49.976;11.858;2023-03-23T12:42:59;13.10;99.90
16823;DHT22;8528;49.976;11.858;2023-03-23T12:48:12;12.90;99.90
16823;DHT22;8528;49.976;11.858;2023-03-23T12:53:25;12.90;99.90
16823;DHT22;8528;49.976;11.858;2023-03-23T13:01:47;13.30;99.90
16823;DHT22;8528;49.976;11.858;2023-03-23T13:04:21;13.30;99.90
16823;DHT22;8528;49.976;11.858;2023-03-23T13:06:48;13.30;99.90
16823;DHT22;8528;49.976;11.858;2023-03-23T13:11:51;13.60;99.90
16823;DHT22;8528;49.976;11.858;2023-03-23T13:28:28;13.30;99.90
16823;DHT22;8528;49.976;11.858;2023-03-23T13:31:10;13.30;99.90
16823;DHT22;8528;49.976;11.858;2023-03-23T13:33:37;13.40;99.90
16823;DHT22;8528;49.976;11.858;2023-03-23T13:36:08;13.60;99.90
16823;DHT22;8528;49.976;11.858;2023-03-23T13:38:34;14.00;99.90
16823;DHT22;8528;49.976;11.858;2023-03-23T13:41:12;14.40;99.90
16823;DHT22;8528;49.976;11.858;2023-03-23T13:43:40;14.40;99.90
16823;DHT22;8528;49.976;11.858;2023-03-23T13:53:51;13.90;99.90
16823;DHT22;8528;49.976;11.858;2023-03-23T13:56:41;13.70;99.90
16823;DHT22;8528;49.976;11.858;2023-03-23T13:59:14;13.40;99.90
16823;DHT22;8528;49.976;11.858;2023-03-23T14:01:41;13.20;99.90
16823;DHT22;8528;49.976;11.858;2023-03-23T14:04:14;13.00;99.90
16823;DHT22;8528;49.976;11.858;2023-03-23T14:06:42;12.90;99.90
16823;DHT22;8528;49.976;11.858;2023-03-23T14:09:18;12.90;99.90
16823;DHT22;8528;49.976;11.858;2023-03-23T14:11:47;13.10;99.90
16823;DHT22;8528;49.976;11.858;2023-03-23T14:14:22;13.10;99.90
16823;DHT22;8528;49.976;11.858;2023-03-23T14:16:50;13.00;99.90
16823;DHT22;8528;49.976;11.858;2023-03-23T14:19:24;12.90;99.90
16823;DHT22;8528;49.976;11.858;2023-03-23T14:21:58;13.00;99.90
16823;DHT22;8528;49.976;11.858;2023-03-23T14:24:30;13.00;99.90
16823;DHT22;8528;49.976;11.858;2023-03-23T14:27:15;13.00;99.90
16823;DHT22;8528;49.976;11.858;2023-03-23T14:29:42;13.00;99.90
16823;DHT22;8528;49.976;11.858;2023-03-23T14:32:20;12.90;99.90
16823;DHT22;8528;49.976;11.858;2023-03-23T14:34:52;12.90;99.90
16823;DHT22;8528;49.976;11.858;2023-03-23T14:37:20;13.00;99.90
16823;DHT22;8528;49.976;11.858;2023-03-23T14:39:49;13.10;99.90
16823;DHT22;8528;49.976;11.858;2023-03-23T14:42:20;13.00;99.90
16823;DHT22;8528;49.976;11.858;2023-03-23T14:44:49;13.10;99.90
16823;DHT22;8528;49.976;11.858;2023-03-23T14:47:54;13.20;99.90
16823;DHT22;8528;49.976;11.858;2023-03-23T14:50:29;13.20;99.90
16823;DHT22;8528;49.976;11.858;2023-03-23T14:55:52;13.30;99.90
16823;DHT22;8528;49.976;11.858;2023-03-23T14:58:23;13.20;99.90
16823;DHT22;8528;49.976;11.858;2023-03-23T15:01:26;13.30;99.90
16823;DHT22;8528;49.976;11.858;2023-03-23T15:03:58;13.40;99.90
16823;DHT22;8528;49.976;11.858;2023-03-23T15:06:28;13.30;99.90
16823;DHT22;8528;49.976;11.858;2023-03-23T15:09:20;13.20;99.90
16823;DHT22;8528;49.976;11.858;2023-03-23T15:11:59;13.10;99.90
16823;DHT22;8528;49.976;11.858;2023-03-23T15:14:43;13.00;99.90
16823;DHT22;8528;49.976;11.858;2023-03-23T15:17:22;12.90;99.90
16823;DHT22;8528;49.976;11.858;2023-03-23T15:19:50;12.90;99.90
16823;DHT22;8528;49.976;11.858;2023-03-23T15:22:28;13.00;99.90
16823;DHT22;8528;49.976;11.858;2023-03-23T15:30:46;12.80;99.90
16823;DHT22;8528;49.976;11.858;2023-03-23T15:33:13;12.80;99.90
16823;DHT22;8528;49.976;11.858;2023-03-23T15:35:50;12.80;99.90
16823;DHT22;8528;49.976;11.858;2023-03-23T15:38:23;12.80;99.90
16823;DHT22;8528;49.976;11.858;2023-03-23T15:40:51;12.80;99.90
16823;DHT22;8528;49.976;11.858;2023-03-23T15:43:27;12.70;99.90
16823;DHT22;8528;49.976;11.858;2023-03-23T15:48:49;12.70;99.90
16823;DHT22;8528;49.976;11.858;2023-03-23T15:51:20;12.70;99.90
16823;DHT22;8528;49.976;11.858;2023-03-23T15:53:47;12.60;99.90
16823;DHT22;8528;49.976;11.858;2023-03-23T15:56:13;12.60;99.90
16823;DHT22;8528;49.976;11.858;2023-03-23T15:58:40;12.50;99.90
16823;DHT22;8528;49.976;11.858;2023-03-23T16:01:25;12.50;99.90
16823;DHT22;8528;49.976;11.858;2023-03-23T16:04:01;12.50;99.90
16823;DHT22;8528;49.976;11.858;2023-03-23T16:06:32;12.40;99.90
16823;DHT22;8528;49.976;11.858;2023-03-23T16:08:59;12.50;99.90
16823;DHT22;8528;49.976;11.858;2023-03-23T16:11:28;12.40;99.90
16823;DHT22;8528;49.976;11.858;2023-03-23T16:13:57;12.30;99.90
16823;DHT22;8528;49.976;11.858;2023-03-23T16:16:27;12.30;99.90
16823;DHT22;8528;49.976;11.858;2023-03-23T16:18:55;12.30;99.90
16823;DHT22;8528;49.976;11.858;2023-03-23T16:21:22;12.30;99.90
16823;DHT22;8528;49.976;11.858;2023-03-23T16:23:49;12.20;99.90
16823;DHT22;8528;49.976;11.858;2023-03-23T16:26:16;12.20;99.90
16823;DHT22;8528;49.976;11.858;2023-03-23T16:28:43;12.20;99.90
16823;DHT22;8528;49.976;11.858;2023-03-23T16:31:10;12.30;99.90
16823;DHT22;8528;49.976;11.858;2023-03-23T16:33:37;12.20;99.90
16823;DHT22;8528;49.976;11.858;2023-03-23T16:36:05;12.20;99.90
16823;DHT22;8528;49.976;11.858;2023-03-23T16:38:32;12.10;99.90
16823;DHT22;8528;49.976;11.858;2023-03-23T16:41:15;12.20;99.90
16823;DHT22;8528;49.976;11.858;2023-03-23T16:43:42;12.20;99.90
16823;DHT22;8528;49.976;11.858;2023-03-23T16:46:10;12.10;99.90
16823;DHT22;8528;49.976;11.858;2023-03-23T16:48:37;12.10;99.90
16823;DHT22;8528;49.976;11.858;2023-03-23T16:51:04;12.10;99.90
16823;DHT22;8528;49.976;11.858;2023-03-23T16:53:32;12.20;99.90
16823;DHT22;8528;49.976;11.858;2023-03-23T16:55:59;12.20;99.90
16823;DHT22;8528;49.976;11.858;2023-03-23T16:58:26;12.20;99.90
16823;DHT22;8528;49.976;11.858;2023-03-23T17:01:04;12.10;99.90
16823;DHT22;8528;49.976;11.858;2023-03-23T17:03:31;12.00;99.90
16823;DHT22;8528;49.976;11.858;2023-03-23T17:05:59;12.00;99.90
16823;DHT22;8528;49.976;11.858;2023-03-23T17:08:27;12.00;99.90
16823;DHT22;8528;49.976;11.858;2023-03-23T17:10:54;12.00;99.90
16823;DHT22;8528;49.976;11.858;2023-03-23T17:13:21;11.90;99.90
16823;DHT22;8528;49.976;11.858;2023-03-23T17:15:51;11.90;99.90
16823;DHT22;8528;49.976;11.858;2023-03-23T17:18:19;11.90;99.90
16823;DHT22;8528;49.976;11.858;2023-03-23T17:20:47;11.80;99.90
16823;DHT22;8528;49.976;11.858;2023-03-23T17:23:14;11.80;99.90
16823;DHT22;8528;49.976;11.858;2023-03-23T17:25:43;11.80;99.90
16823;DHT22;8528;49.976;11.858;2023-03-23T17:28:12;11.80;99.90
16823;DHT22;8528;49.976;11.858;2023-03-23T17:30:43;11.80;99.90
16823;DHT22;8528;49.976;11.858;2023-03-23T17:33:11;11.80;99.90
16823;DHT22;8528;49.976;11.858;2023-03-23T17:35:38;11.80;99.90
16823;DHT22;8528;49.976;11.858;2023-03-23T17:38:04;11.80;99.90
16823;DHT22;8528;49.976;11.858;2023-03-23T17:40:31;11.70;99.90
16823;DHT22;8528;49.976;11.858;2023-03-23T17:42:58;11.70;99.90
16823;DHT22;8528;49.976;11.858;2023-03-23T17:45:25;11.70;99.90
16823;DHT22;8528;49.976;11.858;2023-03-23T17:47:52;11.70;99.90